sensor_id;sensor_type;location;lat;lon;timestamp;pressure;altitude;pressure_sealevel;temperature;humidity
69780;BME280;57052;55.602;38.096;2023-05-10T00:00:47;101370.06;;;10.97;39.23
69780;BME280;57052;55.602;38.096;2023-05-10T00:03:12;101367.59;;;10.95;38.95
69780;BME280;57052;55.602;38.096;2023-05-10T00:05:38;101367.38;;;10.97;39.45
69780;BME280;57052;55.602;38.096;2023-05-10T00:08:04;101369.25;;;10.97;39.45
69780;BME280;57052;55.602;38.096;2023-05-10T00:10:29;101373.00;;;10.95;39.33
69780;BME280;57052;55.602;38.096;2023-05-10T00:12:55;101368.66;;;10.94;39.72
69780;BME280;57052;55.602;38.096;2023-05-10T00:15:21;101367.28;;;10.92;39.50
69780;BME280;57052;55.602;38.096;2023-05-10T00:17:46;101364.78;;;10.90;39.65
69780;BME280;57052;55.602;38.096;2023-05-10T00:20:12;101368.81;;;10.88;39.90
69780;BME280;57052;55.602;38.096;2023-05-10T00:22:38;101350.84;;;10.82;40.20
69780;BME280;57052;55.602;38.096;2023-05-10T00:25:04;101372.69;;;10.92;40.38
69780;BME280;57052;55.602;38.096;2023-05-10T00:27:30;101366.66;;;10.90;40.41
69780;BME280;57052;55.602;38.096;2023-05-10T00:29:55;101370.19;;;10.90;40.81
69780;BME280;57052;55.602;38.096;2023-05-10T00:32:21;101372.44;;;10.93;40.65
69780;BME280;57052;55.602;38.096;2023-05-10T00:34:47;101330.53;;;10.68;40.80
69780;BME280;57052;55.602;38.096;2023-05-10T00:37:12;101375.41;;;10.92;40.68
69780;BME280;57052;55.602;38.096;2023-05-10T00:39:38;101362.34;;;10.89;40.42
69780;BME280;57052;55.602;38.096;2023-05-10T00:42:04;101367.28;;;10.92;40.58
69780;BME280;57052;55.602;38.096;2023-05-10T00:44:29;101361.50;;;10.88;40.94
69780;BME280;57052;55.602;38.096;2023-05-10T00:46:57;101363.72;;;10.91;41.03
69780;BME280;57052;55.602;38.096;2023-05-10T00:49:23;101372.69;;;10.92;41.05
69780;BME280;57052;55.602;38.096;2023-05-10T00:51:49;101365.88;;;10.89;41.28
69780;BME280;57052;55.602;38.096;2023-05-10T00:54:15;101374.22;;;10.88;41.42
69780;BME280;57052;55.602;38.096;2023-05-10T00:56:41;101369.06;;;10.86;40.89
69780;BME280;57052;55.602;38.096;2023-05-10T00:59:08;101378.25;;;10.85;40.72
69780;BME280;57052;55.602;38.096;2023-05-10T01:01:35;101351.53;;;10.77;40.76
69780;BME280;57052;55.602;38.096;2023-05-10T01:04:01;101367.66;;;10.84;40.93
69780;BME280;57052;55.602;38.096;2023-05-10T01:06:28;101357.22;;;10.76;40.64
69780;BME280;57052;55.602;38.096;2023-05-10T01:08:55;101369.78;;;10.82;40.82
69780;BME280;57052;55.602;38.096;2023-05-10T01:11:21;101365.69;;;10.79;41.14
69780;BME280;57052;55.602;38.096;2023-05-10T01:13:52;101365.34;;;10.76;41.71
69780;BME280;57052;55.602;38.096;2023-05-10T01:16:20;101368.53;;;10.73;41.05
69780;BME280;57052;55.602;38.096;2023-05-10T01:18:46;101354.56;;;10.64;41.21
69780;BME280;57052;55.602;38.096;2023-05-10T01:21:35;101368.34;;;10.63;42.61
69780;BME280;57052;55.602;38.096;2023-05-10T01:27:47;101375.06;;;10.60;42.97
69780;BME280;57052;55.602;38.096;2023-05-10T01:41:52;101373.06;;;10.56;42.37
69780;BME280;57052;55.602;38.096;2023-05-10T01:47:02;101355.59;;;10.47;43.31
69780;BME280;57052;55.602;38.096;2023-05-10T01:49:33;101359.78;;;10.54;43.00
69780;BME280;57052;55.602;38.096;2023-05-10T01:52:06;101358.97;;;10.54;43.92
69780;BME280;57052;55.602;38.096;2023-05-10T01:54:35;101367.66;;;10.56;42.89
69780;BME280;57052;55.602;38.096;2023-05-10T01:57:06;101367.09;;;10.54;43.76
69780;BME280;57052;55.602;38.096;2023-05-10T01:59:35;101369.78;;;10.54;43.11
69780;BME280;57052;55.602;38.096;2023-05-10T02:02:02;101363.47;;;10.48;43.40
69780;BME280;57052;55.602;38.096;2023-05-10T02:04:30;101364.03;;;10.50;43.21
69780;BME280;57052;55.602;38.096;2023-05-10T02:06:57;101362.16;;;10.51;43.34
69780;BME280;57052;55.602;38.096;2023-05-10T02:09:23;101363.81;;;10.52;43.67
69780;BME280;57052;55.602;38.096;2023-05-10T02:11:51;101353.34;;;10.44;43.32
69780;BME280;57052;55.602;38.096;2023-05-10T02:14:18;101366.75;;;10.50;44.01
69780;BME280;57052;55.602;38.096;2023-05-10T02:16:45;101366.50;;;10.52;44.07
69780;BME280;57052;55.602;38.096;2023-05-10T02:19:13;101360.50;;;10.50;44.65
69780;BME280;57052;55.602;38.096;2023-05-10T02:22:00;101351.31;;;10.51;44.11
69780;BME280;57052;55.602;38.096;2023-05-10T02:24:28;101364.84;;;10.51;44.45
69780;BME280;57052;55.602;38.096;2023-05-10T02:26:55;101361.09;;;10.52;44.87
69780;BME280;57052;55.602;38.096;2023-05-10T02:29:23;101358.63;;;10.50;44.66
69780;BME280;57052;55.602;38.096;2023-05-10T02:31:52;101360.50;;;10.50;45.14
69780;BME280;57052;55.602;38.096;2023-05-10T02:34:21;101359.44;;;10.51;45.07
69780;BME280;57052;55.602;38.096;2023-05-10T02:36:48;101355.34;;;10.48;44.94
69780;BME280;57052;55.602;38.096;2023-05-10T02:39:16;101339.56;;;10.45;45.19
69780;BME280;57052;55.602;38.096;2023-05-10T02:41:44;101347.66;;;10.57;45.31
69780;BME280;57052;55.602;38.096;2023-05-10T02:44:12;101354.69;;;10.58;45.30
69780;BME280;57052;55.602;38.096;2023-05-10T02:46:39;101345.53;;;10.59;44.90
69780;BME280;57052;55.602;38.096;2023-05-10T02:49:05;101334.81;;;10.52;45.19
69780;BME280;57052;55.602;38.096;2023-05-10T02:51:34;101348.81;;;10.61;45.69
69780;BME280;57052;55.602;38.096;2023-05-10T02:54:15;101341.25;;;10.63;46.72
69780;BME280;57052;55.602;38.096;2023-05-10T02:57:07;101341.50;;;10.61;46.87
69780;BME280;57052;55.602;38.096;2023-05-10T02:59:35;101314.97;;;10.47;45.48
69780;BME280;57052;55.602;38.096;2023-05-10T03:02:02;101340.53;;;10.67;45.41
69780;BME280;57052;55.602;38.096;2023-05-10T03:04:29;101348.44;;;10.69;45.33
69780;BME280;57052;55.602;38.096;2023-05-10T03:06:55;101342.75;;;10.70;45.69
69780;BME280;57052;55.602;38.096;2023-05-10T03:09:21;101347.94;;;10.72;45.59
69780;BME280;57052;55.602;38.096;2023-05-10T03:12:00;101342.53;;;10.72;47.52
69780;BME280;57052;55.602;38.096;2023-05-10T03:14:52;101341.69;;;10.71;47.76
69780;BME280;57052;55.602;38.096;2023-05-10T03:17:30;101340.41;;;10.74;46.41
69780;BME280;57052;55.602;38.096;2023-05-10T03:20:01;101335.16;;;10.84;45.79
69780;BME280;57052;55.602;38.096;2023-05-10T03:22:34;101336.31;;;10.88;46.04
69780;BME280;57052;55.602;38.096;2023-05-10T03:25:05;101345.00;;;10.90;46.35
69780;BME280;57052;55.602;38.096;2023-05-10T03:27:40;101341.59;;;10.94;46.46
69780;BME280;57052;55.602;38.096;2023-05-10T03:30:13;101343.19;;;10.95;47.14
69780;BME280;57052;55.602;38.096;2023-05-10T03:32:39;101340.81;;;10.82;47.96
69780;BME280;57052;55.602;38.096;2023-05-10T03:35:09;101339.44;;;10.97;45.43
69780;BME280;57052;55.602;38.096;2023-05-10T03:37:35;101329.34;;;10.92;45.21
69780;BME280;57052;55.602;38.096;2023-05-10T03:40:02;101337.13;;;11.05;45.55
69780;BME280;57052;55.602;38.096;2023-05-10T03:42:29;101338.31;;;11.09;45.68
69780;BME280;57052;55.602;38.096;2023-05-10T03:44:55;101343.81;;;11.14;45.68
69780;BME280;57052;55.602;38.096;2023-05-10T03:47:20;101344.13;;;11.18;45.98
69780;BME280;57052;55.602;38.096;2023-05-10T03:49:46;101343.63;;;11.21;45.67
69780;BME280;57052;55.602;38.096;2023-05-10T03:52:12;101340.66;;;11.22;45.36
69780;BME280;57052;55.602;38.096;2023-05-10T03:54:37;101333.94;;;11.25;44.87
69780;BME280;57052;55.602;38.096;2023-05-10T03:57:03;101339.78;;;11.33;44.80
69780;BME280;57052;55.602;38.096;2023-05-10T03:59:29;101339.78;;;11.33;44.67
69780;BME280;57052;55.602;38.096;2023-05-10T04:01:55;101344.78;;;11.41;44.19
69780;BME280;57052;55.602;38.096;2023-05-10T04:04:21;101348.88;;;11.44;43.90
69780;BME280;57052;55.602;38.096;2023-05-10T04:06:47;101344.59;;;11.48;43.95
69780;BME280;57052;55.602;38.096;2023-05-10T04:09:13;101341.13;;;11.52;43.79
69780;BME280;57052;55.602;38.096;2023-05-10T04:11:39;101303.69;;;11.33;43.35
69780;BME280;57052;55.602;38.096;2023-05-10T04:14:05;101321.94;;;11.54;43.02
69780;BME280;57052;55.602;38.096;2023-05-10T04:16:30;101342.94;;;11.64;43.19
69780;BME280;57052;55.602;38.096;2023-05-10T04:18:56;101335.38;;;11.66;42.88
69780;BME280;57052;55.602;38.096;2023-05-10T04:21:22;101348.22;;;11.70;43.13
69780;BME280;57052;55.602;38.096;2023-05-10T04:23:48;101339.34;;;11.75;43.15
69780;BME280;57052;55.602;38.096;2023-05-10T04:26:14;101342.13;;;11.80;43.11
69780;BME280;57052;55.602;38.096;2023-05-10T04:28:40;101336.78;;;11.85;42.90
69780;BME280;57052;55.602;38.096;2023-05-10T04:31:07;101333.53;;;11.88;43.11
69780;BME280;57052;55.602;38.096;2023-05-10T04:33:34;101329.84;;;11.94;42.87
69780;BME280;57052;55.602;38.096;2023-05-10T04:36:00;101329.06;;;11.98;42.92
69780;BME280;57052;55.602;38.096;2023-05-10T04:38:26;101324.78;;;12.02;42.59
69780;BME280;57052;55.602;38.096;2023-05-10T04:40:52;101331.66;;;12.10;42.58
69780;BME280;57052;55.602;38.096;2023-05-10T04:43:18;101325.72;;;12.13;42.45
69780;BME280;57052;55.602;38.096;2023-05-10T04:45:44;101323.41;;;12.21;42.35
69780;BME280;57052;55.602;38.096;2023-05-10T04:48:10;101332.16;;;12.29;42.18
69780;BME280;57052;55.602;38.096;2023-05-10T04:50:35;101307.09;;;12.21;41.81
69780;BME280;57052;55.602;38.096;2023-05-10T04:53:01;101322.19;;;12.34;41.82
69780;BME280;57052;55.602;38.096;2023-05-10T04:55:27;101328.56;;;12.45;41.38
69780;BME280;57052;55.602;38.096;2023-05-10T04:57:53;101328.34;;;12.51;40.96
69780;BME280;57052;55.602;38.096;2023-05-10T05:00:22;101319.19;;;12.57;41.10
69780;BME280;57052;55.602;38.096;2023-05-10T05:02:47;101307.50;;;12.57;40.72
69780;BME280;57052;55.602;38.096;2023-05-10T05:05:13;101319.03;;;12.69;40.60
69780;BME280;57052;55.602;38.096;2023-05-10T05:07:39;101317.19;;;12.74;40.87
69780;BME280;57052;55.602;38.096;2023-05-10T05:10:08;101301.13;;;12.73;40.50
69780;BME280;57052;55.602;38.096;2023-05-10T05:12:34;101312.13;;;12.88;40.82
69780;BME280;57052;55.602;38.096;2023-05-10T05:15:01;101301.84;;;12.90;40.48
69780;BME280;57052;55.602;38.096;2023-05-10T05:17:26;101312.78;;;13.00;40.17
69780;BME280;57052;55.602;38.096;2023-05-10T05:19:52;101312.00;;;13.05;39.98
69780;BME280;57052;55.602;38.096;2023-05-10T05:22:18;101293.22;;;13.03;39.97
69780;BME280;57052;55.602;38.096;2023-05-10T05:24:45;101305.34;;;13.17;39.42
69780;BME280;57052;55.602;38.096;2023-05-10T05:27:10;101305.41;;;13.22;39.52
69780;BME280;57052;55.602;38.096;2023-05-10T05:29:36;101287.38;;;13.16;39.26
69780;BME280;57052;55.602;38.096;2023-05-10T05:32:02;101288.03;;;13.28;39.31
69780;BME280;57052;55.602;38.096;2023-05-10T05:34:28;101292.16;;;13.36;39.04
69780;BME280;57052;55.602;38.096;2023-05-10T05:36:53;101302.84;;;13.47;39.07
69780;BME280;57052;55.602;38.096;2023-05-10T05:39:19;101295.81;;;13.57;38.60
69780;BME280;57052;55.602;38.096;2023-05-10T05:41:45;101295.00;;;13.56;38.15
69780;BME280;57052;55.602;38.096;2023-05-10T05:44:11;101296.13;;;13.60;38.10
69780;BME280;57052;55.602;38.096;2023-05-10T05:46:37;101295.59;;;13.68;38.55
69780;BME280;57052;55.602;38.096;2023-05-10T05:49:02;101289.38;;;13.78;38.31
69780;BME280;57052;55.602;38.096;2023-05-10T05:51:28;101283.44;;;13.86;37.66
69780;BME280;57052;55.602;38.096;2023-05-10T05:53:54;101285.66;;;13.94;37.79
69780;BME280;57052;55.602;38.096;2023-05-10T05:56:19;101284.06;;;14.03;37.39
69780;BME280;57052;55.602;38.096;2023-05-10T05:58:52;101281.09;;;14.09;37.05
69780;BME280;57052;55.602;38.096;2023-05-10T06:01:17;101277.31;;;14.21;37.07
69780;BME280;57052;55.602;38.096;2023-05-10T06:03:43;101279.25;;;14.25;37.01
69780;BME280;57052;55.602;38.096;2023-05-10T06:06:09;101276.28;;;14.32;37.08
69780;BME280;57052;55.602;38.096;2023-05-10T06:08:34;101265.06;;;14.28;36.46
69780;BME280;57052;55.602;38.096;2023-05-10T06:11:00;101264.88;;;14.40;36.66
69780;BME280;57052;55.602;38.096;2023-05-10T06:13:26;101267.63;;;14.50;36.63
69780;BME280;57052;55.602;38.096;2023-05-10T06:15:58;101270.06;;;14.46;35.79
69780;BME280;57052;55.602;38.096;2023-05-10T06:18:24;101272.25;;;14.54;35.98
69780;BME280;57052;55.602;38.096;2023-05-10T06:20:49;101271.97;;;14.61;35.74
69780;BME280;57052;55.602;38.096;2023-05-10T06:23:15;101264.09;;;14.59;35.72
69780;BME280;57052;55.602;38.096;2023-05-10T06:25:41;101259.72;;;14.58;35.65
69780;BME280;57052;55.602;38.096;2023-05-10T06:28:07;101264.34;;;14.73;36.00
69780;BME280;57052;55.602;38.096;2023-05-10T06:30:32;101267.09;;;14.83;35.60
69780;BME280;57052;55.602;38.096;2023-05-10T06:32:58;101251.84;;;14.87;35.54
69780;BME280;57052;55.602;38.096;2023-05-10T06:35:24;101259.72;;;15.04;35.63
69780;BME280;57052;55.602;38.096;2023-05-10T06:37:50;101264.91;;;15.15;35.24
69780;BME280;57052;55.602;38.096;2023-05-10T06:40:16;101252.91;;;15.21;35.38
69780;BME280;57052;55.602;38.096;2023-05-10T06:42:42;101264.31;;;15.33;35.11
69780;BME280;57052;55.602;38.096;2023-05-10T06:45:10;101244.16;;;15.34;34.57
69780;BME280;57052;55.602;38.096;2023-05-10T06:47:36;101244.13;;;15.45;34.35
69780;BME280;57052;55.602;38.096;2023-05-10T06:50:02;101260.75;;;15.58;34.57
69780;BME280;57052;55.602;38.096;2023-05-10T06:52:30;101251.72;;;15.68;34.38
69780;BME280;57052;55.602;38.096;2023-05-10T06:54:56;101250.34;;;15.75;34.22
69780;BME280;57052;55.602;38.096;2023-05-10T06:57:21;101246.75;;;15.85;33.90
69780;BME280;57052;55.602;38.096;2023-05-10T06:59:47;101237.69;;;15.94;33.72
69780;BME280;57052;55.602;38.096;2023-05-10T07:02:13;101239.59;;;15.94;33.22
69780;BME280;57052;55.602;38.096;2023-05-10T07:04:40;101243.41;;;15.98;32.71
69780;BME280;57052;55.602;38.096;2023-05-10T07:07:05;101238.47;;;16.05;32.20
69780;BME280;57052;55.602;38.096;2023-05-10T07:09:31;101232.38;;;16.18;32.00
69780;BME280;57052;55.602;38.096;2023-05-10T07:11:57;101188.78;;;16.03;31.08
69780;BME280;57052;55.602;38.096;2023-05-10T07:14:23;101237.16;;;16.36;30.89
69780;BME280;57052;55.602;38.096;2023-05-10T07:16:48;101231.09;;;16.44;30.53
69780;BME280;57052;55.602;38.096;2023-05-10T07:19:14;101235.44;;;16.55;30.33
69780;BME280;57052;55.602;38.096;2023-05-10T07:21:40;101223.66;;;16.60;30.07
69780;BME280;57052;55.602;38.096;2023-05-10T07:24:07;101229.81;;;16.76;29.84
69780;BME280;57052;55.602;38.096;2023-05-10T07:26:33;101229.19;;;16.84;29.54
69780;BME280;57052;55.602;38.096;2023-05-10T07:28:59;101227.00;;;16.86;29.01
69780;BME280;57052;55.602;38.096;2023-05-10T07:31:24;101226.13;;;16.90;28.88
69780;BME280;57052;55.602;38.096;2023-05-10T07:33:50;101214.94;;;16.87;28.49
69780;BME280;57052;55.602;38.096;2023-05-10T07:36:16;101215.16;;;16.95;28.53
69780;BME280;57052;55.602;38.096;2023-05-10T07:38:41;101219.44;;;17.01;28.36
69780;BME280;57052;55.602;38.096;2023-05-10T07:41:07;101221.56;;;17.09;28.24
69780;BME280;57052;55.602;38.096;2023-05-10T07:43:33;101214.38;;;17.18;28.44
69780;BME280;57052;55.602;38.096;2023-05-10T07:45:58;101223.81;;;17.31;28.49
69780;BME280;57052;55.602;38.096;2023-05-10T07:48:25;101221.25;;;17.40;27.91
69780;BME280;57052;55.602;38.096;2023-05-10T07:50:51;101216.66;;;17.35;27.26
69780;BME280;57052;55.602;38.096;2023-05-10T07:53:17;101205.19;;;17.33;27.08
69780;BME280;57052;55.602;38.096;2023-05-10T07:55:44;101201.78;;;17.41;27.20
69780;BME280;57052;55.602;38.096;2023-05-10T07:58:10;101205.53;;;17.50;27.04
69780;BME280;57052;55.602;38.096;2023-05-10T08:00:36;101199.16;;;17.60;27.05
69780;BME280;57052;55.602;38.096;2023-05-10T08:03:04;101198.78;;;17.66;27.16
69780;BME280;57052;55.602;38.096;2023-05-10T08:05:30;101201.31;;;17.63;26.26
69780;BME280;57052;55.602;38.096;2023-05-10T08:07:56;101197.38;;;17.45;26.05
69780;BME280;57052;55.602;38.096;2023-05-10T08:10:22;101188.47;;;17.35;25.86
69780;BME280;57052;55.602;38.096;2023-05-10T08:12:47;101195.41;;;17.27;25.93
69780;BME280;57052;55.602;38.096;2023-05-10T08:15:13;101197.03;;;17.28;26.16
69780;BME280;57052;55.602;38.096;2023-05-10T08:17:39;101186.56;;;17.35;26.01
69780;BME280;57052;55.602;38.096;2023-05-10T08:20:05;101187.31;;;17.41;25.90
69780;BME280;57052;55.602;38.096;2023-05-10T08:22:31;101186.66;;;17.49;25.80
69780;BME280;57052;55.602;38.096;2023-05-10T08:24:57;101171.03;;;17.49;25.71
69780;BME280;57052;55.602;38.096;2023-05-10T08:27:22;101171.47;;;17.61;25.78
69780;BME280;57052;55.602;38.096;2023-05-10T08:29:48;101173.56;;;17.69;25.84
69780;BME280;57052;55.602;38.096;2023-05-10T08:32:13;101166.91;;;17.75;26.13
69780;BME280;57052;55.602;38.096;2023-05-10T08:34:39;101171.13;;;17.86;26.19
69780;BME280;57052;55.602;38.096;2023-05-10T08:37:05;101161.59;;;17.84;25.35
69780;BME280;57052;55.602;38.096;2023-05-10T08:39:34;101162.78;;;17.78;23.76
69780;BME280;57052;55.602;38.096;2023-05-10T08:42:03;101166.84;;;17.80;24.15
69780;BME280;57052;55.602;38.096;2023-05-10T08:44:34;101166.41;;;17.73;23.34
69780;BME280;57052;55.602;38.096;2023-05-10T08:47:04;101161.44;;;17.75;24.63
69780;BME280;57052;55.602;38.096;2023-05-10T08:49:31;101166.53;;;17.82;24.63
69780;BME280;57052;55.602;38.096;2023-05-10T08:51:57;101168.41;;;17.86;24.77
69780;BME280;57052;55.602;38.096;2023-05-10T08:54:24;101162.63;;;17.88;24.90
69780;BME280;57052;55.602;38.096;2023-05-10T08:56:50;101166.84;;;17.99;24.79
69780;BME280;57052;55.602;38.096;2023-05-10T08:59:16;101145.66;;;18.05;24.68
69780;BME280;57052;55.602;38.096;2023-05-10T09:01:43;101149.16;;;18.10;24.49
69780;BME280;57052;55.602;38.096;2023-05-10T09:04:11;101163.00;;;18.19;24.73
69780;BME280;57052;55.602;38.096;2023-05-10T09:06:37;101154.41;;;18.25;24.80
69780;BME280;57052;55.602;38.096;2023-05-10T09:09:03;101150.25;;;18.28;24.74
69780;BME280;57052;55.602;38.096;2023-05-10T09:11:29;101146.63;;;18.32;24.79
69780;BME280;57052;55.602;38.096;2023-05-10T09:13:55;101134.00;;;18.31;24.65
69780;BME280;57052;55.602;38.096;2023-05-10T09:16:22;101133.84;;;18.41;24.42
69780;BME280;57052;55.602;38.096;2023-05-10T09:18:48;101137.59;;;18.50;24.60
69780;BME280;57052;55.602;38.096;2023-05-10T09:21:14;101129.56;;;18.54;23.98
69780;BME280;57052;55.602;38.096;2023-05-10T09:23:44;101132.94;;;18.65;23.41
69780;BME280;57052;55.602;38.096;2023-05-10T09:26:12;101126.34;;;18.79;24.30
69780;BME280;57052;55.602;38.096;2023-05-10T09:28:55;101131.06;;;18.92;24.20
69780;BME280;57052;55.602;38.096;2023-05-10T09:31:21;101118.78;;;19.03;24.46
69780;BME280;57052;55.602;38.096;2023-05-10T09:33:48;101123.66;;;19.20;23.78
69780;BME280;57052;55.602;38.096;2023-05-10T09:36:14;101118.78;;;19.31;24.05
69780;BME280;57052;55.602;38.096;2023-05-10T09:43:43;101108.63;;;19.58;24.22
69780;BME280;57052;55.602;38.096;2023-05-10T09:46:09;101100.25;;;19.63;24.24
69780;BME280;57052;55.602;38.096;2023-05-10T09:48:47;101109.28;;;19.77;22.78
69780;BME280;57052;55.602;38.096;2023-05-10T09:51:23;101104.47;;;19.83;23.10
69780;BME280;57052;55.602;38.096;2023-05-10T09:54:15;101102.03;;;19.81;21.64
69780;BME280;57052;55.602;38.096;2023-05-10T09:56:41;101099.91;;;19.78;22.84
69780;BME280;57052;55.602;38.096;2023-05-10T09:59:11;101077.97;;;19.65;22.26
69780;BME280;57052;55.602;38.096;2023-05-10T10:01:38;101090.84;;;19.78;23.19
69780;BME280;57052;55.602;38.096;2023-05-10T10:04:05;101090.84;;;19.78;22.90
69780;BME280;57052;55.602;38.096;2023-05-10T10:06:38;101092.06;;;19.86;21.91
69780;BME280;57052;55.602;38.096;2023-05-10T10:09:05;101063.56;;;19.81;23.00
69780;BME280;57052;55.602;38.096;2023-05-10T10:11:32;101075.50;;;19.99;22.53
69780;BME280;57052;55.602;38.096;2023-05-10T10:13:58;101078.38;;;19.94;22.03
69780;BME280;57052;55.602;38.096;2023-05-10T10:16:24;101066.72;;;19.89;22.00
69780;BME280;57052;55.602;38.096;2023-05-10T10:18:50;101071.44;;;19.97;22.30
69780;BME280;57052;55.602;38.096;2023-05-10T10:21:16;101060.69;;;19.87;21.80
69780;BME280;57052;55.602;38.096;2023-05-10T10:23:42;101059.09;;;19.86;21.94
69780;BME280;57052;55.602;38.096;2023-05-10T10:26:10;101057.69;;;19.97;21.41
69780;BME280;57052;55.602;38.096;2023-05-10T10:31:17;101066.88;;;20.14;21.47
69780;BME280;57052;55.602;38.096;2023-05-10T10:36:18;101056.72;;;20.37;22.26
69780;BME280;57052;55.602;38.096;2023-05-10T10:41:35;101060.25;;;20.60;20.75
69780;BME280;57052;55.602;38.096;2023-05-10T10:49:25;101047.06;;;20.79;21.70
69780;BME280;57052;55.602;38.096;2023-05-10T10:54:51;101043.94;;;20.72;19.53
69780;BME280;57052;55.602;38.096;2023-05-10T10:57:19;101041.72;;;20.74;21.08
69780;BME280;57052;55.602;38.096;2023-05-10T10:59:46;100991.75;;;20.50;21.29
69780;BME280;57052;55.602;38.096;2023-05-10T11:02:34;101036.84;;;20.71;19.78
69780;BME280;57052;55.602;38.096;2023-05-10T11:07:54;101030.66;;;20.65;19.88
69780;BME280;57052;55.602;38.096;2023-05-10T11:10:21;101035.38;;;20.73;20.99
69780;BME280;57052;55.602;38.096;2023-05-10T11:13:09;101031.50;;;20.74;20.79
69780;BME280;57052;55.602;38.096;2023-05-10T11:15:39;101023.91;;;20.80;20.56
69780;BME280;57052;55.602;38.096;2023-05-10T11:18:19;101025.94;;;20.96;19.54
69780;BME280;57052;55.602;38.096;2023-05-10T11:20:55;101017.25;;;21.20;20.62
69780;BME280;57052;55.602;38.096;2023-05-10T11:23:22;101021.50;;;21.35;21.29
69780;BME280;57052;55.602;38.096;2023-05-10T11:25:49;101023.16;;;21.44;21.18
69780;BME280;57052;55.602;38.096;2023-05-10T11:28:18;101006.75;;;21.48;20.60
69780;BME280;57052;55.602;38.096;2023-05-10T11:30:45;101010.34;;;21.48;21.44
69780;BME280;57052;55.602;38.096;2023-05-10T11:33:16;101003.88;;;21.44;21.09
69780;BME280;57052;55.602;38.096;2023-05-10T11:35:42;101000.59;;;21.42;21.73
69780;BME280;57052;55.602;38.096;2023-05-10T11:38:09;100997.69;;;21.47;21.53
69780;BME280;57052;55.602;38.096;2023-05-10T11:40:36;100987.47;;;21.48;21.82
69780;BME280;57052;55.602;38.096;2023-05-10T11:43:03;101003.53;;;21.63;21.35
69780;BME280;57052;55.602;38.096;2023-05-10T11:45:32;100991.50;;;21.85;21.66
69780;BME280;57052;55.602;38.096;2023-05-10T11:47:59;100993.28;;;22.15;21.35
69780;BME280;57052;55.602;38.096;2023-05-10T11:50:26;100994.84;;;22.33;20.78
69780;BME280;57052;55.602;38.096;2023-05-10T11:52:53;100985.41;;;22.43;20.43
69780;BME280;57052;55.602;38.096;2023-05-10T11:55:19;100997.53;;;22.50;20.31
69780;BME280;57052;55.602;38.096;2023-05-10T11:57:46;100984.41;;;22.47;20.01
69780;BME280;57052;55.602;38.096;2023-05-10T12:00:14;100978.47;;;22.37;19.02
69780;BME280;57052;55.602;38.096;2023-05-10T12:02:40;100960.50;;;22.22;19.80
69780;BME280;57052;55.602;38.096;2023-05-10T12:05:07;100979.13;;;22.25;20.27
69780;BME280;57052;55.602;38.096;2023-05-10T12:07:32;100973.66;;;22.16;19.98
69780;BME280;57052;55.602;38.096;2023-05-10T12:10:09;100973.03;;;22.02;19.62
69780;BME280;57052;55.602;38.096;2023-05-10T12:12:40;100970.44;;;21.97;19.77
69780;BME280;57052;55.602;38.096;2023-05-10T12:15:16;100965.44;;;21.91;20.10
69780;BME280;57052;55.602;38.096;2023-05-10T12:17:44;100971.94;;;21.86;20.45
69780;BME280;57052;55.602;38.096;2023-05-10T12:20:14;100967.19;;;21.78;19.76
69780;BME280;57052;55.602;38.096;2023-05-10T12:22:44;100968.66;;;21.76;20.39
69780;BME280;57052;55.602;38.096;2023-05-10T12:25:09;100960.91;;;21.69;21.10
69780;BME280;57052;55.602;38.096;2023-05-10T12:27:35;100959.09;;;21.64;20.80
69780;BME280;57052;55.602;38.096;2023-05-10T12:30:02;100962.66;;;21.65;20.67
69780;BME280;57052;55.602;38.096;2023-05-10T12:32:41;100959.13;;;21.56;20.93
69780;BME280;57052;55.602;38.096;2023-05-10T12:35:07;100958.13;;;21.52;21.89
69780;BME280;57052;55.602;38.096;2023-05-10T12:37:33;100955.38;;;21.52;21.66
69780;BME280;57052;55.602;38.096;2023-05-10T12:40:09;100961.56;;;21.49;21.57
69780;BME280;57052;55.602;38.096;2023-05-10T12:42:36;100952.00;;;21.46;21.47
69780;BME280;57052;55.602;38.096;2023-05-10T12:45:03;100960.09;;;21.43;21.70
69780;BME280;57052;55.602;38.096;2023-05-10T12:47:34;100948.75;;;21.36;21.31
69780;BME280;57052;55.602;38.096;2023-05-10T12:50:00;100955.72;;;21.33;21.38
69780;BME280;57052;55.602;38.096;2023-05-10T12:52:27;100955.06;;;21.28;21.46
69780;BME280;57052;55.602;38.096;2023-05-10T12:54:53;100948.41;;;21.20;21.93
69780;BME280;57052;55.602;38.096;2023-05-10T12:57:20;100947.59;;;21.20;21.22
69780;BME280;57052;55.602;38.096;2023-05-10T12:59:46;100950.19;;;21.16;21.60
69780;BME280;57052;55.602;38.096;2023-05-10T13:02:12;100950.38;;;21.11;21.60
69780;BME280;57052;55.602;38.096;2023-05-10T13:04:38;100945.50;;;21.08;21.24
69780;BME280;57052;55.602;38.096;2023-05-10T13:07:08;100940.59;;;20.96;20.66
69780;BME280;57052;55.602;38.096;2023-05-10T13:09:34;100942.38;;;21.01;21.47
69780;BME280;57052;55.602;38.096;2023-05-10T13:12:01;100946.25;;;21.00;21.33
69780;BME280;57052;55.602;38.096;2023-05-10T13:14:26;100945.78;;;20.98;21.61
69780;BME280;57052;55.602;38.096;2023-05-10T13:16:52;100947.41;;;20.99;21.50
69780;BME280;57052;55.602;38.096;2023-05-10T13:19:18;100934.91;;;20.93;21.62
69780;BME280;57052;55.602;38.096;2023-05-10T13:21:43;100940.41;;;20.93;21.75
69780;BME280;57052;55.602;38.096;2023-05-10T13:24:12;100942.69;;;20.91;21.61